Time;durP1;ratioP1;P1;durP2;ratioP2;P2;SDS_P1;SDS_P2;PMS_P1;PMS_P2;Temp;Humidity;BMP_temperature;BMP_pressure;BME280_temperature;BME280_humidity;BME280_pressure;Samples;Min_cycle;Max_cycle;Signal;HPM_P1;HPM_P2
2023/06/19 00:01:58;;;;;;;0.20;0.20;;;21.80;93.10;;;;;;4840289;29;20050;-80
2023/06/19 00:04:24;;;;;;;0.20;0.20;;;21.80;93.10;;;;;;4819423;29;20054;-80
2023/06/19 00:06:50;;;;;;;0.20;0.20;;;21.80;93.00;;;;;;4840156;29;20599;-81
2023/06/19 00:09:17;;;;;;;0.20;0.20;;;21.80;93.00;;;;;;4833919;29;20058;-80
2023/06/19 00:11:42;;;;;;;0.20;0.20;;;21.80;92.90;;;;;;4816861;29;20054;-81
2023/06/19 00:14:08;;;;;;;0.20;0.20;;;21.80;92.80;;;;;;4816672;29;20051;-80
2023/06/19 00:16:33;;;;;;;0.20;0.20;;;21.80;92.80;;;;;;4811933;29;20057;-79
2023/06/19 00:18:59;;;;;;;0.20;0.20;;;21.80;92.70;;;;;;4820608;29;20050;-80
2023/06/19 00:21:25;;;;;;;0.20;0.20;;;21.80;92.70;;;;;;4837524;29;20069;-80
2023/06/19 00:23:52;;;;;;;0.10;0.10;;;21.70;92.60;;;;;;4821699;29;20058;-80
2023/06/19 00:26:19;;;;;;;0.20;0.20;;;21.70;92.60;;;;;;4819464;29;20057;-80
2023/06/19 00:28:47;;;;;;;0.20;0.20;;;21.70;92.60;;;;;;4822449;29;20431;-80
2023/06/19 00:31:14;;;;;;;0.20;0.20;;;21.70;92.60;;;;;;4814467;29;20066;-80
2023/06/19 00:33:40;;;;;;;0.20;0.20;;;21.70;92.50;;;;;;4836036;29;20121;-79
2023/06/19 00:36:13;;;;;;;0.20;0.20;;;21.70;92.50;;;;;;4823767;29;20087;-80
2023/06/19 00:38:39;;;;;;;0.20;0.20;;;21.70;92.50;;;;;;4821814;29;20046;-80
2023/06/19 00:41:05;;;;;;;0.20;0.20;;;21.70;92.80;;;;;;4819171;29;21349;-79
2023/06/19 00:43:32;;;;;;;0.20;0.20;;;21.70;92.60;;;;;;4819407;29;20053;-80
2023/06/19 00:45:58;;;;;;;0.20;0.20;;;21.70;92.60;;;;;;4836568;29;20038;-79
2023/06/19 00:48:27;;;;;;;0.20;0.20;;;21.70;92.60;;;;;;4836516;29;20426;-80
2023/06/19 00:50:52;;;;;;;0.20;0.20;;;21.70;92.70;;;;;;4823567;29;20185;-79
2023/06/19 00:53:19;;;;;;;0.20;0.20;;;21.70;92.70;;;;;;4830343;29;20058;-80
2023/06/19 00:55:47;;;;;;;0.20;0.20;;;21.70;92.70;;;;;;4817569;29;20050;-80
2023/06/19 00:58:13;;;;;;;0.20;0.20;;;21.70;92.70;;;;;;4818175;29;20570;-79
2023/06/19 01:00:38;;;;;;;0.20;0.20;;;21.70;92.70;;;;;;4816602;29;20054;-80
2023/06/19 01:03:04;;;;;;;0.20;0.20;;;21.70;92.70;;;;;;4837846;29;20041;-80
2023/06/19 01:05:30;;;;;;;0.20;0.20;;;21.70;92.70;;;;;;4820724;29;20990;-80
2023/06/19 01:08:19;;;;;;;0.20;0.20;;;21.60;92.60;;;;;;4834522;29;20078;-80
2023/06/19 01:10:54;;;;;;;0.20;0.20;;;21.70;92.70;;;;;;4821328;29;20045;-80
2023/06/19 01:13:45;;;;;;;0.20;0.20;;;21.60;92.60;;;;;;4830750;29;20395;-80
2023/06/19 01:16:12;;;;;;;0.20;0.20;;;21.60;92.60;;;;;;4822736;29;20049;-80
2023/06/19 01:18:38;;;;;;;0.20;0.20;;;21.60;92.50;;;;;;4837220;29;20095;-80
2023/06/19 01:21:11;;;;;;;0.20;0.20;;;21.60;92.50;;;;;;4820779;29;20046;-80
2023/06/19 01:23:36;;;;;;;0.20;0.20;;;21.60;92.40;;;;;;4815877;29;20054;-80
2023/06/19 01:26:02;;;;;;;0.20;0.20;;;21.60;92.40;;;;;;4837081;29;20551;-80
2023/06/19 01:28:28;;;;;;;0.20;0.20;;;21.60;92.30;;;;;;4818763;29;20106;-80
2023/06/19 01:30:55;;;;;;;0.20;0.20;;;21.60;92.20;;;;;;4819355;29;20082;-80
2023/06/19 01:33:26;;;;;;;0.20;0.20;;;21.60;92.10;;;;;;4831136;29;20057;-80
2023/06/19 01:35:52;;;;;;;0.20;0.20;;;21.60;92.00;;;;;;4833570;29;20414;-80
2023/06/19 01:38:20;;;;;;;0.20;0.20;;;21.50;91.90;;;;;;4836921;29;20048;-80
2023/06/19 01:40:48;;;;;;;0.20;0.20;;;21.50;91.80;;;;;;4839918;29;20063;-79
2023/06/19 01:43:15;;;;;;;0.20;0.20;;;21.60;92.10;;;;;;4821750;29;20444;-79
2023/06/19 01:45:41;;;;;;;0.20;0.20;;;21.50;91.70;;;;;;4833112;29;20081;-80
2023/06/19 01:48:08;;;;;;;0.20;0.20;;;21.50;91.70;;;;;;4831333;29;20046;-80
2023/06/19 01:50:34;;;;;;;0.20;0.20;;;21.50;91.60;;;;;;4835514;29;20057;-81
2023/06/19 01:52:59;;;;;;;0.20;0.20;;;21.50;91.60;;;;;;4835238;29;20046;-80
2023/06/19 01:55:25;;;;;;;0.20;0.20;;;21.50;91.60;;;;;;4818226;29;20042;-80
2023/06/19 01:57:51;;;;;;;0.20;0.20;;;21.50;91.50;;;;;;4828876;29;20046;-80
2023/06/19 02:00:17;;;;;;;0.20;0.20;;;21.60;91.60;;;;;;4830075;29;20584;-80
2023/06/19 02:02:43;;;;;;;0.20;0.20;;;21.50;91.50;;;;;;4813807;29;20058;-81
2023/06/19 02:05:09;;;;;;;0.20;0.20;;;21.50;91.50;;;;;;4820114;29;20042;-80
2023/06/19 02:07:35;;;;;;;0.20;0.20;;;21.60;91.50;;;;;;4818069;29;20149;-80
2023/06/19 02:10:01;;;;;;;0.20;0.20;;;21.50;91.50;;;;;;4808812;29;21170;-80
2023/06/19 02:12:26;;;;;;;0.17;0.17;;;21.50;91.50;;;;;;4818346;29;20050;-81
2023/06/19 02:14:52;;;;;;;0.20;0.20;;;21.50;91.50;;;;;;4838373;29;20140;-80
2023/06/19 02:17:17;;;;;;;0.20;0.20;;;21.60;91.50;;;;;;4819809;29;20050;-80
2023/06/19 02:19:43;;;;;;;0.20;0.20;;;21.60;91.50;;;;;;4814957;29;20053;-80
2023/06/19 02:22:09;;;;;;;0.20;0.20;;;21.60;91.50;;;;;;4806975;29;20061;-80
2023/06/19 02:24:34;;;;;;;0.20;0.20;;;21.50;91.50;;;;;;4834447;29;20046;-80
2023/06/19 02:27:01;;;;;;;0.20;0.20;;;21.50;91.50;;;;;;4822349;29;20069;-80
2023/06/19 02:29:29;;;;;;;0.20;0.20;;;21.50;91.40;;;;;;4825266;29;20074;-80
2023/06/19 02:31:56;;;;;;;0.20;0.20;;;21.50;91.40;;;;;;4841641;29;20110;-79
2023/06/19 02:34:24;;;;;;;0.20;0.20;;;21.50;91.40;;;;;;4839849;29;20045;-80
2023/06/19 02:36:49;;;;;;;0.20;0.20;;;21.50;91.30;;;;;;4818357;29;20408;-80
2023/06/19 02:39:15;;;;;;;0.20;0.20;;;21.50;91.30;;;;;;4826909;29;20057;-80
2023/06/19 02:41:45;;;;;;;0.20;0.20;;;21.50;91.30;;;;;;4819578;29;20042;-81
2023/06/19 02:44:11;;;;;;;0.20;0.20;;;21.50;91.20;;;;;;4819511;29;20047;-80
2023/06/19 02:46:37;;;;;;;0.20;0.20;;;21.50;91.20;;;;;;4823304;29;20073;-80
2023/06/19 02:49:03;;;;;;;0.20;0.20;;;21.50;91.10;;;;;;4839654;29;20503;-81
2023/06/19 02:51:28;;;;;;;0.20;0.20;;;21.50;91.00;;;;;;4824749;29;20046;-81
2023/06/19 02:53:54;;;;;;;0.20;0.20;;;21.50;90.90;;;;;;4836546;29;20486;-81
2023/06/19 02:56:20;;;;;;;0.20;0.20;;;21.50;90.80;;;;;;4824620;29;20114;-80
2023/06/19 02:58:45;;;;;;;0.20;0.20;;;21.50;90.80;;;;;;4837444;29;20074;-80
2023/06/19 03:01:11;;;;;;;0.20;0.20;;;21.50;91.00;;;;;;4821372;29;20082;-80
2023/06/19 03:03:37;;;;;;;0.20;0.20;;;21.50;90.50;;;;;;4811242;29;20045;-80
2023/06/19 03:06:08;;;;;;;0.20;0.20;;;21.40;90.50;;;;;;4840674;29;20053;-80
2023/06/19 03:08:37;;;;;;;0.20;0.20;;;21.40;90.40;;;;;;4824328;29;20046;-80
2023/06/19 03:11:04;;;;;;;0.20;0.20;;;21.40;90.40;;;;;;4819988;29;20153;-81
2023/06/19 03:13:43;;;;;;;0.20;0.20;;;21.40;90.30;;;;;;4835764;29;20651;-81
2023/06/19 03:16:09;;;;;;;0.20;0.20;;;21.40;90.30;;;;;;4830675;29;20081;-81
2023/06/19 03:18:34;;;;;;;0.20;0.20;;;21.40;90.20;;;;;;4839178;29;20096;-81
2023/06/19 03:21:00;;;;;;;0.20;0.20;;;21.40;90.10;;;;;;4840873;29;20053;-81
2023/06/19 03:23:25;;;;;;;0.20;0.20;;;21.40;90.10;;;;;;4836205;29;20045;-81
2023/06/19 03:25:51;;;;;;;0.20;0.20;;;21.40;90.00;;;;;;4831296;29;20084;-80
2023/06/19 03:28:18;;;;;;;0.20;0.20;;;21.40;89.70;;;;;;4815442;29;20069;-80
2023/06/19 03:30:43;;;;;;;0.20;0.20;;;21.40;89.70;;;;;;4839704;29;20038;-81
2023/06/19 03:33:09;;;;;;;0.20;0.20;;;21.40;89.80;;;;;;4823901;29;20062;-81
2023/06/19 03:35:35;;;;;;;0.20;0.20;;;21.40;89.90;;;;;;4852442;29;20057;-81
2023/06/19 03:38:00;;;;;;;0.20;0.20;;;21.40;89.90;;;;;;4841306;29;20058;-81
2023/06/19 03:40:26;;;;;;;0.20;0.20;;;21.40;90.00;;;;;;4840921;29;20337;-81
2023/06/19 03:42:53;;;;;;;0.20;0.20;;;21.40;89.90;;;;;;4810249;29;20062;-81
2023/06/19 03:45:21;;;;;;;0.20;0.20;;;21.40;89.90;;;;;;4827381;29;20050;-82
2023/06/19 03:47:47;;;;;;;0.20;0.20;;;21.30;90.00;;;;;;4833939;29;20387;-81
2023/06/19 03:50:13;;;;;;;0.20;0.20;;;21.30;90.00;;;;;;4838662;29;20055;-81
2023/06/19 03:52:38;;;;;;;0.20;0.20;;;21.30;90.00;;;;;;4823752;29;20056;-82
2023/06/19 03:55:05;;;;;;;0.20;0.20;;;21.30;90.00;;;;;;4827454;29;20042;-82
2023/06/19 03:57:30;;;;;;;0.20;0.20;;;21.30;90.10;;;;;;4837419;29;20623;-81
2023/06/19 03:59:56;;;;;;;0.20;0.20;;;21.30;90.40;;;;;;4822043;29;20112;-81
2023/06/19 04:02:22;;;;;;;0.20;0.20;;;21.30;90.20;;;;;;4817217;29;20104;-81
2023/06/19 04:04:50;;;;;;;0.20;0.20;;;21.30;90.10;;;;;;4837918;29;20085;-80
2023/06/19 04:07:16;;;;;;;0.20;0.20;;;21.30;90.10;;;;;;4839508;29;20517;-81
2023/06/19 04:09:41;;;;;;;0.20;0.20;;;21.30;90.20;;;;;;4822123;29;20140;-81
2023/06/19 04:12:07;;;;;;;0.20;0.20;;;21.20;90.20;;;;;;4823107;29;20056;-78
2023/06/19 04:14:33;;;;;;;0.20;0.20;;;21.20;90.20;;;;;;4815888;29;20046;-80
2023/06/19 04:16:59;;;;;;;0.20;0.20;;;21.20;90.30;;;;;;4835059;29;20106;-81
2023/06/19 04:19:24;;;;;;;0.20;0.20;;;21.30;90.40;;;;;;4837724;29;20102;-80
2023/06/19 04:21:50;;;;;;;0.20;0.20;;;21.30;90.40;;;;;;4823213;29;20046;-80
2023/06/19 04:24:16;;;;;;;0.20;0.20;;;21.30;90.40;;;;;;4834907;29;20116;-80
2023/06/19 04:26:42;;;;;;;0.20;0.20;;;21.30;90.50;;;;;;4834225;29;20606;-80
2023/06/19 04:29:08;;;;;;;0.20;0.20;;;21.30;90.60;;;;;;4820526;29;20046;-78
2023/06/19 04:31:40;;;;;;;0.20;0.20;;;21.40;90.70;;;;;;4818044;29;20098;-79
2023/06/19 04:34:07;;;;;;;0.20;0.20;;;21.40;90.80;;;;;;4821980;29;20046;-80
2023/06/19 04:36:32;;;;;;;0.20;0.20;;;21.40;90.80;;;;;;4822023;29;20423;-81
2023/06/19 04:39:00;;;;;;;0.20;0.20;;;21.50;90.90;;;;;;4812213;29;20053;-79
2023/06/19 04:41:26;;;;;;;0.20;0.20;;;21.50;91.00;;;;;;4831001;29;20046;-78
2023/06/19 04:43:52;;;;;;;0.20;0.20;;;21.50;91.10;;;;;;4839449;29;20114;-80
2023/06/19 04:46:20;;;;;;;0.20;0.20;;;21.50;91.20;;;;;;4822654;29;20070;-78
2023/06/19 04:48:50;;;;;;;0.20;0.20;;;21.50;91.40;;;;;;4816316;29;20125;-81
2023/06/19 04:51:20;;;;;;;0.10;0.10;;;21.50;91.40;;;;;;4822830;29;20057;-78
2023/06/19 04:53:48;;;;;;;0.20;0.20;;;21.50;91.50;;;;;;4821423;29;20537;-78
2023/06/19 04:56:16;;;;;;;0.20;0.20;;;21.50;91.70;;;;;;4835641;29;20460;-78
2023/06/19 04:58:49;;;;;;;0.20;0.20;;;21.50;91.80;;;;;;4821863;29;20088;-78
2023/06/19 05:01:16;;;;;;;0.20;0.20;;;21.50;91.90;;;;;;4839246;29;20049;-78
2023/06/19 05:03:48;;;;;;;0.20;0.20;;;21.50;92.10;;;;;;4827375;29;20065;-79
2023/06/19 05:06:17;;;;;;;0.20;0.20;;;21.50;92.20;;;;;;4813514;29;20050;-78
2023/06/19 05:08:43;;;;;;;0.20;0.20;;;21.50;92.40;;;;;;4838248;29;20112;-78
2023/06/19 05:11:08;;;;;;;0.20;0.20;;;21.50;92.40;;;;;;4838974;29;20061;-77
2023/06/19 05:13:34;;;;;;;0.20;0.20;;;21.50;92.60;;;;;;4821045;29;20050;-80
2023/06/19 05:16:00;;;;;;;0.20;0.20;;;21.50;92.80;;;;;;4821137;29;20451;-78
2023/06/19 05:18:26;;;;;;;0.20;0.20;;;21.50;93.00;;;;;;4822060;29;20048;-79
2023/06/19 05:20:51;;;;;;;0.20;0.20;;;21.40;93.20;;;;;;4836880;29;20042;-78
2023/06/19 05:23:17;;;;;;;0.20;0.20;;;21.40;93.20;;;;;;4821809;29;20050;-79
2023/06/19 05:25:43;;;;;;;0.20;0.20;;;21.40;93.40;;;;;;4821368;29;20088;-78
2023/06/19 05:28:09;;;;;;;0.20;0.20;;;21.40;93.50;;;;;;4814846;29;20070;-79
2023/06/19 05:30:35;;;;;;;0.20;0.20;;;21.40;93.80;;;;;;4833827;29;20096;-80
2023/06/19 05:33:00;;;;;;;0.20;0.20;;;21.40;93.80;;;;;;4821994;29;20054;-79
2023/06/19 05:35:26;;;;;;;0.20;0.20;;;21.30;94.00;;;;;;4834411;29;20060;-79
2023/06/19 05:37:52;;;;;;;0.20;0.20;;;21.40;94.20;;;;;;4817672;29;20097;-83
2023/06/19 05:40:17;;;;;;;0.20;0.20;;;21.40;94.30;;;;;;4839229;29;20110;-80
2023/06/19 05:42:43;;;;;;;0.20;0.20;;;21.30;94.40;;;;;;4836379;29;20038;-78
2023/06/19 05:45:09;;;;;;;0.20;0.20;;;21.40;94.40;;;;;;4810100;29;20053;-77
2023/06/19 05:47:35;;;;;;;0.20;0.20;;;21.40;94.50;;;;;;4832047;29;20050;-77
2023/06/19 05:50:00;;;;;;;0.20;0.20;;;21.40;94.80;;;;;;4814665;29;20463;-76
2023/06/19 05:52:26;;;;;;;0.20;0.20;;;21.40;94.80;;;;;;4819328;29;20046;-78
2023/06/19 05:54:53;;;;;;;0.20;0.20;;;21.40;94.80;;;;;;4828386;29;20105;-77
2023/06/19 05:57:20;;;;;;;0.20;0.20;;;21.40;95.00;;;;;;4818493;29;20122;-80
2023/06/19 05:59:50;;;;;;;0.25;0.25;;;21.40;95.10;;;;;;4821047;29;20042;-79
2023/06/19 06:02:19;;;;;;;0.20;0.20;;;21.50;95.30;;;;;;4830219;29;20050;-78
2023/06/19 06:04:45;;;;;;;0.20;0.20;;;21.60;95.50;;;;;;4823649;29;20106;-77
2023/06/19 06:07:11;;;;;;;0.20;0.20;;;21.60;95.60;;;;;;4825232;29;20058;-78
2023/06/19 06:09:37;;;;;;;0.20;0.20;;;21.60;95.70;;;;;;4826330;29;20448;-79
2023/06/19 06:12:04;;;;;;;0.20;0.20;;;21.60;95.80;;;;;;4837303;29;20046;-78
2023/06/19 06:14:29;;;;;;;0.20;0.20;;;21.60;95.70;;;;;;4811632;29;20704;-78
2023/06/19 06:16:55;;;;;;;0.30;0.30;;;21.60;96.00;;;;;;4824055;29;20132;-79
2023/06/19 06:19:22;;;;;;;0.20;0.20;;;21.60;96.00;;;;;;4840802;29;20061;-80
2023/06/19 06:21:48;;;;;;;0.20;0.20;;;21.60;96.00;;;;;;4825511;29;20078;-78
2023/06/19 06:24:14;;;;;;;0.20;0.20;;;21.60;96.10;;;;;;4825084;29;20046;-78
2023/06/19 06:26:40;;;;;;;0.20;0.20;;;21.60;96.20;;;;;;4840512;29;20048;-78
2023/06/19 06:29:06;;;;;;;0.20;0.20;;;21.60;96.20;;;;;;4824255;29;20530;-78
2023/06/19 06:31:32;;;;;;;0.20;0.20;;;21.70;96.30;;;;;;4820091;29;20053;-78
2023/06/19 06:33:57;;;;;;;0.20;0.20;;;21.70;96.40;;;;;;4836118;29;20039;-78
2023/06/19 06:36:24;;;;;;;0.20;0.20;;;21.70;96.50;;;;;;4823045;29;20057;-78
2023/06/19 06:38:50;;;;;;;0.20;0.20;;;21.70;96.60;;;;;;4818539;29;20068;-78
2023/06/19 06:41:16;;;;;;;0.20;0.20;;;21.70;96.60;;;;;;4819771;29;20133;-79
2023/06/19 06:43:44;;;;;;;0.20;0.20;;;21.70;96.80;;;;;;4817346;29;20422;-79
2023/06/19 06:46:10;;;;;;;0.22;0.22;;;21.70;96.90;;;;;;4823188;29;20466;-79
2023/06/19 06:48:36;;;;;;;0.20;0.20;;;21.70;97.10;;;;;;4818947;29;20149;-76
2023/06/19 06:51:02;;;;;;;0.22;0.22;;;21.70;97.20;;;;;;4835511;29;20419;-77
2023/06/19 06:53:28;;;;;;;0.20;0.20;;;21.70;97.40;;;;;;4813218;29;20109;-77
2023/06/19 06:55:55;;;;;;;0.20;0.20;;;21.70;97.40;;;;;;4815304;29;20060;-77
2023/06/19 06:58:20;;;;;;;0.20;0.20;;;21.70;97.60;;;;;;4815686;29;20058;-76
2023/06/19 07:00:47;;;;;;;0.20;0.20;;;21.70;97.60;;;;;;4820657;29;20053;-78
2023/06/19 07:03:13;;;;;;;0.20;0.20;;;21.70;97.60;;;;;;4822860;29;20065;-77
2023/06/19 07:05:38;;;;;;;0.20;0.20;;;21.70;97.80;;;;;;4808599;29;20508;-79
2023/06/19 07:08:04;;;;;;;0.20;0.20;;;21.60;97.80;;;;;;4807936;29;20082;-78
2023/06/19 07:10:31;;;;;;;0.20;0.20;;;21.60;97.80;;;;;;4815682;29;20050;-76
2023/06/19 07:12:56;;;;;;;0.20;0.20;;;21.60;97.90;;;;;;4811747;29;20046;-76
2023/06/19 07:15:22;;;;;;;0.20;0.20;;;21.60;98.10;;;;;;4809467;29;20058;-77
2023/06/19 07:17:48;;;;;;;0.20;0.20;;;21.60;98.40;;;;;;4814596;29;20042;-77
2023/06/19 07:20:14;;;;;;;0.20;0.20;;;21.60;98.40;;;;;;4818379;29;20520;-77
2023/06/19 07:22:41;;;;;;;0.20;0.20;;;21.60;98.40;;;;;;4822213;29;20267;-76
2023/06/19 07:25:09;;;;;;;0.20;0.20;;;21.60;98.60;;;;;;4817654;29;20048;-76
2023/06/19 07:27:34;;;;;;;0.20;0.20;;;21.60;98.70;;;;;;4838987;29;20081;-77
2023/06/19 07:30:00;;;;;;;0.20;0.20;;;21.50;98.80;;;;;;4820633;29;20078;-75
2023/06/19 07:32:26;;;;;;;0.20;0.20;;;21.50;99.20;;;;;;4828985;29;20520;-79
2023/06/19 07:34:52;;;;;;;0.20;0.20;;;21.50;99.40;;;;;;4836439;29;20046;-76
2023/06/19 07:37:18;;;;;;;0.20;0.20;;;21.40;99.60;;;;;;4820838;29;20493;-77
2023/06/19 07:39:49;;;;;;;0.20;0.20;;;21.40;99.70;;;;;;4835910;29;20129;-75
2023/06/19 07:42:16;;;;;;;0.20;0.20;;;21.30;99.80;;;;;;4818524;29;20057;-76
2023/06/19 07:44:42;;;;;;;0.20;0.20;;;21.30;99.90;;;;;;4837096;29;20042;-76
2023/06/19 07:47:08;;;;;;;0.20;0.20;;;21.20;99.90;;;;;;4817273;29;20053;-78
2023/06/19 07:49:34;;;;;;;0.20;0.20;;;21.20;99.90;;;;;;4815839;29;20138;-79
2023/06/19 07:52:00;;;;;;;0.20;0.20;;;21.20;99.90;;;;;;4812073;29;20133;-78
2023/06/19 07:54:26;;;;;;;0.20;0.20;;;21.20;99.90;;;;;;4834223;29;20125;-78
2023/06/19 07:56:52;;;;;;;0.20;0.20;;;21.10;99.90;;;;;;4818853;29;20054;-79
2023/06/19 07:59:18;;;;;;;0.20;0.20;;;21.10;99.90;;;;;;4817659;29;20057;-77
2023/06/19 08:01:44;;;;;;;0.20;0.20;;;21.10;99.90;;;;;;4816818;29;20371;-78
2023/06/19 08:04:10;;;;;;;0.20;0.20;;;21.10;99.90;;;;;;4817997;29;20509;-77
2023/06/19 08:06:35;;;;;;;0.20;0.20;;;21.10;99.90;;;;;;4819891;29;20050;-78
2023/06/19 08:09:01;;;;;;;0.20;0.20;;;21.10;99.90;;;;;;4839942;29;20046;-77
2023/06/19 08:11:27;;;;;;;0.20;0.20;;;21.10;99.90;;;;;;4840351;29;20096;-77
2023/06/19 08:13:53;;;;;;;0.20;0.20;;;21.10;99.90;;;;;;4839072;29;20070;-78
2023/06/19 08:16:19;;;;;;;0.15;0.15;;;21.10;99.90;;;;;;4828291;29;20471;-78
2023/06/19 08:18:45;;;;;;;0.20;0.20;;;21.10;99.90;;;;;;4807371;29;20057;-78
2023/06/19 08:21:11;;;;;;;0.20;0.20;;;21.10;99.90;;;;;;4815604;29;20420;-78
2023/06/19 08:23:43;;;;;;;0.20;0.20;;;21.20;99.90;;;;;;4805173;29;20099;-77
2023/06/19 08:26:09;;;;;;;0.20;0.20;;;21.20;99.90;;;;;;4827774;29;20052;-77
2023/06/19 08:28:34;;;;;;;0.20;0.20;;;21.20;99.90;;;;;;4836871;29;20414;-76
2023/06/19 08:31:00;;;;;;;0.20;0.20;;;21.20;99.90;;;;;;4812662;29;20092;-77
2023/06/19 08:33:26;;;;;;;0.20;0.20;;;21.20;99.90;;;;;;4812313;29;20051;-77
2023/06/19 08:35:52;;;;;;;0.20;0.20;;;21.20;99.90;;;;;;4821644;29;20145;-78
2023/06/19 08:38:18;;;;;;;0.20;0.20;;;21.20;99.90;;;;;;4838886;29;20046;-78
2023/06/19 08:40:44;;;;;;;0.15;0.15;;;21.20;99.90;;;;;;4821584;29;20061;-77
2023/06/19 08:43:11;;;;;;;0.20;0.20;;;21.20;99.90;;;;;;4820213;29;20434;-77
2023/06/19 08:45:52;;;;;;;0.20;0.20;;;21.20;99.90;;;;;;5127343;27;19957;-78
2023/06/19 08:48:20;;;;;;;0.20;0.20;;;21.30;99.90;;;;;;5104096;28;20067;-77
2023/06/19 08:50:46;;;;;;;0.20;0.20;;;21.30;99.90;;;;;;5103001;28;20039;-79
2023/06/19 08:53:12;;;;;;;0.20;0.20;;;21.30;99.90;;;;;;5102042;28;20102;-78
2023/06/19 08:55:37;;;;;;;0.20;0.20;;;21.40;99.90;;;;;;5085678;28;20036;-78
2023/06/19 08:58:03;;;;;;;0.20;0.20;;;21.40;99.90;;;;;;5099233;28;20091;-78
2023/06/19 09:00:29;;;;;;;0.20;0.20;;;21.50;99.90;;;;;;5095673;28;20104;-78
2023/06/19 09:03:01;;;;;;;0.20;0.20;;;21.50;99.90;;;;;;5097807;28;20546;-77
2023/06/19 09:05:27;;;;;;;0.20;0.20;;;21.50;99.90;;;;;;5098845;28;20043;-77
2023/06/19 09:08:00;;;;;;;0.20;0.20;;;21.50;99.90;;;;;;5103797;28;20044;-77
2023/06/19 09:10:27;;;;;;;0.20;0.20;;;21.50;99.90;;;;;;5095754;28;20427;-78
2023/06/19 09:13:05;;;;;;;0.20;0.20;;;21.50;99.90;;;;;;5093354;28;20372;-76
2023/06/19 09:15:34;;;;;;;0.20;0.20;;;21.50;99.90;;;;;;5096052;28;20429;-77
2023/06/19 09:18:08;;;;;;;0.20;0.20;;;21.40;99.90;;;;;;5102509;28;20063;-77
2023/06/19 09:20:38;;;;;;;0.20;0.20;;;21.50;99.90;;;;;;5095009;28;20355;-77
2023/06/19 09:23:04;;;;;;;0.20;0.20;;;21.50;99.90;;;;;;5098043;28;20138;-76
2023/06/19 09:25:30;;;;;;;0.20;0.20;;;21.60;99.90;;;;;;5095152;28;20483;-76
2023/06/19 09:27:56;;;;;;;0.20;0.20;;;21.60;99.80;;;;;;5099707;28;20035;-83
2023/06/19 09:30:22;;;;;;;0.20;0.20;;;21.60;99.70;;;;;;5097093;28;20048;-78
2023/06/19 09:32:48;;;;;;;0.10;0.10;;;21.60;99.60;;;;;;5099394;28;20047;-77
2023/06/19 09:35:14;;;;;;;0.20;0.20;;;21.70;99.50;;;;;;5098138;28;20093;-78
2023/06/19 09:37:41;;;;;;;0.20;0.20;;;21.70;99.40;;;;;;5099144;28;20448;-77
2023/06/19 09:40:10;;;;;;;0.20;0.20;;;21.80;99.40;;;;;;5098566;28;20050;-77
2023/06/19 09:42:43;;;;;;;0.20;0.20;;;21.90;99.20;;;;;;5085957;28;20054;-76
2023/06/19 09:45:11;;;;;;;0.20;0.20;;;21.90;99.00;;;;;;5097757;28;20051;-76
2023/06/19 09:47:45;;;;;;;0.20;0.20;;;22.00;98.90;;;;;;5106171;28;20085;-77
2023/06/19 09:50:15;;;;;;;0.20;0.20;;;22.20;98.70;;;;;;5103988;28;20044;-77
2023/06/19 09:52:43;;;;;;;0.20;0.20;;;22.00;98.40;;;;;;5106675;28;20422;-77
2023/06/19 09:55:12;;;;;;;0.20;0.20;;;22.00;98.20;;;;;;5098587;28;20051;-77
2023/06/19 09:57:39;;;;;;;0.20;0.20;;;21.90;98.20;;;;;;5091024;28;20062;-77
2023/06/19 10:00:18;;;;;;;0.20;0.20;;;21.90;98.00;;;;;;5090664;28;20435;-76
2023/06/19 10:02:46;;;;;;;0.20;0.20;;;21.80;97.80;;;;;;5088005;28;20098;-77
2023/06/19 10:05:14;;;;;;;0.20;0.20;;;21.80;97.70;;;;;;5083172;28;20048;-77
2023/06/19 10:07:44;;;;;;;0.20;0.20;;;21.70;97.70;;;;;;5080546;28;20059;-77
2023/06/19 10:10:24;;;;;;;0.20;0.20;;;21.70;97.70;;;;;;5088750;28;20115;-77
2023/06/19 10:12:50;;;;;;;0.20;0.20;;;21.70;97.70;;;;;;5089750;28;20048;-78
2023/06/19 10:15:20;;;;;;;0.20;0.20;;;21.70;97.70;;;;;;5087025;28;20117;-77
2023/06/19 10:18:06;;;;;;;0.20;0.20;;;21.70;97.70;;;;;;5091405;28;20407;-78
2023/06/19 10:20:39;;;;;;;0.20;0.20;;;21.60;97.60;;;;;;5087043;28;20044;-78
2023/06/19 10:23:07;;;;;;;0.10;0.10;;;21.60;97.50;;;;;;5083470;28;20058;-77
2023/06/19 10:25:35;;;;;;;0.20;0.20;;;21.50;97.50;;;;;;5084663;28;20053;-76
2023/06/19 10:28:05;;;;;;;0.20;0.20;;;21.50;97.50;;;;;;5084997;28;20070;-78
2023/06/19 10:30:31;;;;;;;0.20;0.20;;;21.50;97.50;;;;;;5080382;28;20086;-79
2023/06/19 10:32:57;;;;;;;0.10;0.10;;;21.40;97.50;;;;;;5091497;28;20434;-78
2023/06/19 10:35:24;;;;;;;0.20;0.20;;;21.40;97.60;;;;;;5086525;28;20028;-78
2023/06/19 10:37:50;;;;;;;0.20;0.20;;;21.30;97.60;;;;;;5086179;28;20094;-79
2023/06/19 10:40:17;;;;;;;0.20;0.20;;;21.20;97.80;;;;;;5079824;28;20050;-78
2023/06/19 10:42:43;;;;;;;0.20;0.20;;;21.20;97.60;;;;;;5086703;28;20520;-78
2023/06/19 10:45:13;;;;;;;0.20;0.20;;;21.20;97.70;;;;;;5087280;28;20090;-77
2023/06/19 10:47:39;;;;;;;0.20;0.20;;;21.10;97.70;;;;;;5083856;28;20491;-76
2023/06/19 10:50:10;;;;;;;0.20;0.20;;;21.10;97.90;;;;;;5073215;28;20613;-79
2023/06/19 10:52:36;;;;;;;0.20;0.20;;;21.20;98.10;;;;;;5089815;28;20434;-79
2023/06/19 10:55:03;;;;;;;0.20;0.20;;;21.30;98.20;;;;;;5087261;28;20161;-75
2023/06/19 10:57:32;;;;;;;0.20;0.20;;;21.40;98.10;;;;;;5088927;28;20036;-75
2023/06/19 10:59:58;;;;;;;0.20;0.20;;;21.40;98.00;;;;;;5088366;28;20071;-74
2023/06/19 11:02:25;;;;;;;0.20;0.20;;;21.50;97.90;;;;;;5086950;28;20123;-75
2023/06/19 11:04:54;;;;;;;0.20;0.20;;;21.60;97.90;;;;;;5082060;28;20044;-76
2023/06/19 11:07:22;;;;;;;0.20;0.20;;;21.70;98.10;;;;;;5079535;28;20052;-77
2023/06/19 11:09:49;;;;;;;0.20;0.20;;;21.80;98.00;;;;;;5078556;28;20762;-78
2023/06/19 11:12:21;;;;;;;0.20;0.20;;;21.90;97.70;;;;;;5089777;28;20457;-77
2023/06/19 11:14:50;;;;;;;0.20;0.20;;;21.90;97.60;;;;;;5089605;28;20068;-76
2023/06/19 11:17:20;;;;;;;0.20;0.20;;;21.90;97.50;;;;;;5076965;28;20043;-77
2023/06/19 11:19:46;;;;;;;0.20;0.20;;;22.00;97.30;;;;;;5084606;28;20036;-81
2023/06/19 11:22:12;;;;;;;0.20;0.20;;;22.00;97.20;;;;;;5077541;28;20042;-76
2023/06/19 11:24:46;;;;;;;0.20;0.20;;;22.00;96.80;;;;;;5074916;28;20680;-76
2023/06/19 11:27:18;;;;;;;0.20;0.20;;;21.90;97.00;;;;;;5077548;28;20496;-78
2023/06/19 11:29:44;;;;;;;0.30;0.30;;;21.90;97.20;;;;;;5077354;28;20066;-75
2023/06/19 11:32:14;;;;;;;0.20;0.20;;;21.90;97.20;;;;;;5080814;28;20032;-75
2023/06/19 11:34:40;;;;;;;0.10;0.10;;;22.00;97.30;;;;;;5079901;28;20044;-76
2023/06/19 11:37:17;;;;;;;0.20;0.20;;;22.10;97.40;;;;;;5083677;28;20033;-76
2023/06/19 11:39:44;;;;;;;0.20;0.20;;;22.30;97.50;;;;;;5085093;28;20534;-77
2023/06/19 11:42:10;;;;;;;0.20;0.20;;;22.50;97.40;;;;;;5084149;28;20086;-77
2023/06/19 11:44:51;;;;;;;0.20;0.20;;;22.60;97.00;;;;;;5088139;28;20524;-77
2023/06/19 11:47:18;;;;;;;0.20;0.20;;;22.70;96.90;;;;;;5081445;28;20040;-76
2023/06/19 11:49:48;;;;;;;0.20;0.20;;;22.80;96.80;;;;;;5070722;28;20534;-77
2023/06/19 11:52:14;;;;;;;0.20;0.20;;;22.90;96.40;;;;;;5090850;28;20048;-77
2023/06/19 11:54:39;;;;;;;0.20;0.20;;;23.00;96.00;;;;;;5088314;28;20389;-76
2023/06/19 11:57:05;;;;;;;0.20;0.20;;;23.00;95.80;;;;;;5077720;28;21263;-87
2023/06/19 11:59:31;;;;;;;0.20;0.20;;;23.10;96.30;;;;;;5082098;28;20047;-78
2023/06/19 12:01:58;;;;;;;0.20;0.20;;;23.10;95.80;;;;;;5086820;28;20044;-79
2023/06/19 12:04:24;;;;;;;0.20;0.20;;;23.20;95.80;;;;;;5081483;28;20032;-77
2023/06/19 12:06:50;;;;;;;0.20;0.20;;;23.30;95.60;;;;;;5086612;28;20105;-85
2023/06/19 12:09:16;;;;;;;0.20;0.20;;;23.30;95.40;;;;;;5084609;28;20417;-78
2023/06/19 12:11:41;;;;;;;0.20;0.20;;;23.30;95.20;;;;;;5083326;28;20480;-78
2023/06/19 12:14:07;;;;;;;0.20;0.20;;;23.30;95.10;;;;;;5081541;28;20040;-80
2023/06/19 12:16:32;;;;;;;0.20;0.20;;;23.30;94.90;;;;;;5081288;28;20035;-79
2023/06/19 12:18:58;;;;;;;0.20;0.20;;;23.30;94.70;;;;;;5082343;28;20779;-78
2023/06/19 12:21:24;;;;;;;0.20;0.20;;;23.30;94.70;;;;;;5088005;28;20051;-78
2023/06/19 12:23:49;;;;;;;0.20;0.20;;;23.20;94.50;;;;;;5083327;28;20033;-76
2023/06/19 12:26:15;;;;;;;0.20;0.20;;;23.20;94.70;;;;;;5085576;28;20050;-79
2023/06/19 12:28:41;;;;;;;0.30;0.30;;;23.30;94.90;;;;;;5079879;28;20062;-78
2023/06/19 12:31:06;;;;;;;0.20;0.20;;;23.30;94.80;;;;;;5089240;28;20287;-78
2023/06/19 12:33:32;;;;;;;0.20;0.20;;;23.40;94.70;;;;;;5088169;28;20059;-78
2023/06/19 12:35:58;;;;;;;0.20;0.20;;;23.40;94.50;;;;;;5087374;28;20032;-76
2023/06/19 12:38:24;;;;;;;0.20;0.20;;;23.40;94.30;;;;;;5081927;28;20127;-79
2023/06/19 12:40:50;;;;;;;0.20;0.20;;;23.30;94.30;;;;;;5083060;28;20118;-77
2023/06/19 12:43:15;;;;;;;0.20;0.20;;;23.30;94.40;;;;;;5080354;28;20036;-78
2023/06/19 12:45:41;;;;;;;0.20;0.20;;;23.30;94.30;;;;;;5083965;28;20128;-79
2023/06/19 12:48:07;;;;;;;0.20;0.20;;;23.30;94.40;;;;;;5080418;28;20697;-77